sensor_id;sensor_type;location;lat;lon;timestamp;pressure;altitude;pressure_sealevel;temperature
69186;BMP280;56298;49.246;9.410;2022-10-16T00:01:34;99239.59;;;15.91
69186;BMP280;56298;49.246;9.410;2022-10-16T00:04:01;99243.16;;;15.92
69186;BMP280;56298;49.246;9.410;2022-10-16T00:06:27;99242.00;;;15.89
69186;BMP280;56298;49.246;9.410;2022-10-16T00:08:53;99243.16;;;15.92
69186;BMP280;56298;49.246;9.410;2022-10-16T00:11:26;99226.22;;;15.90
69186;BMP280;56298;49.246;9.410;2022-10-16T00:13:56;99232.53;;;15.94
69186;BMP280;56298;49.246;9.410;2022-10-16T00:16:21;99230.16;;;15.96
69186;BMP280;56298;49.246;9.410;2022-10-16T00:18:46;99235.28;;;15.94
69186;BMP280;56298;49.246;9.410;2022-10-16T00:21:15;99228.53;;;15.91
69186;BMP280;56298;49.246;9.410;2022-10-16T00:23:41;99230.53;;;15.91
69186;BMP280;56298;49.246;9.410;2022-10-16T00:26:09;99221.09;;;15.85
69186;BMP280;56298;49.246;9.410;2022-10-16T00:28:36;99223.03;;;15.80
69186;BMP280;56298;49.246;9.410;2022-10-16T00:31:05;99230.53;;;15.80
69186;BMP280;56298;49.246;9.410;2022-10-16T00:33:31;99236.47;;;15.75
69186;BMP280;56298;49.246;9.410;2022-10-16T00:36:01;99236.06;;;15.73
69186;BMP280;56298;49.246;9.410;2022-10-16T00:38:26;99251.84;;;15.76
69186;BMP280;56298;49.246;9.410;2022-10-16T00:40:51;99257.78;;;15.85
69186;BMP280;56298;49.246;9.410;2022-10-16T00:46:03;99238.44;;;15.96
69186;BMP280;56298;49.246;9.410;2022-10-16T00:48:30;99246.75;;;15.96
69186;BMP280;56298;49.246;9.410;2022-10-16T00:50:56;99241.59;;;15.94
69186;BMP280;56298;49.246;9.410;2022-10-16T00:53:23;99255.81;;;15.96
69186;BMP280;56298;49.246;9.410;2022-10-16T00:55:49;99253.44;;;15.88
69186;BMP280;56298;49.246;9.410;2022-10-16T00:58:14;99260.16;;;15.90
69186;BMP280;56298;49.246;9.410;2022-10-16T01:00:39;99253.88;;;15.90
69186;BMP280;56298;49.246;9.410;2022-10-16T01:03:28;99249.88;;;15.98
69186;BMP280;56298;49.246;9.410;2022-10-16T01:06:02;99249.47;;;16.03
69186;BMP280;56298;49.246;9.410;2022-10-16T01:14:22;99260.16;;;16.05
69186;BMP280;56298;49.246;9.410;2022-10-16T01:17:03;99259.38;;;15.93
69186;BMP280;56298;49.246;9.410;2022-10-16T01:19:53;99260.19;;;15.94
69186;BMP280;56298;49.246;9.410;2022-10-16T01:22:21;99255.81;;;16.00
69186;BMP280;56298;49.246;9.410;2022-10-16T01:24:50;99260.16;;;16.05
69186;BMP280;56298;49.246;9.410;2022-10-16T01:32:28;99239.19;;;16.15
69186;BMP280;56298;49.246;9.410;2022-10-16T01:37:32;99238.81;;;16.05
69186;BMP280;56298;49.246;9.410;2022-10-16T01:39:58;99236.81;;;16.02
69186;BMP280;56298;49.246;9.410;2022-10-16T01:42:30;99240.41;;;16.06
69186;BMP280;56298;49.246;9.410;2022-10-16T01:44:57;99243.97;;;16.07
69186;BMP280;56298;49.246;9.410;2022-10-16T01:47:25;99246.34;;;16.12
69186;BMP280;56298;49.246;9.410;2022-10-16T01:49:52;99248.69;;;16.10
69186;BMP280;56298;49.246;9.410;2022-10-16T01:52:21;99260.16;;;16.12
69186;BMP280;56298;49.246;9.410;2022-10-16T01:54:49;99260.16;;;16.12
69186;BMP280;56298;49.246;9.410;2022-10-16T01:57:16;99260.53;;;16.10
69186;BMP280;56298;49.246;9.410;2022-10-16T01:59:46;99260.94;;;16.13
69186;BMP280;56298;49.246;9.410;2022-10-16T02:02:13;99263.31;;;16.10
69186;BMP280;56298;49.246;9.410;2022-10-16T02:04:51;99257.78;;;16.10
69186;BMP280;56298;49.246;9.410;2022-10-16T02:07:17;99256.59;;;16.15
69186;BMP280;56298;49.246;9.410;2022-10-16T02:09:42;99253.03;;;16.18
69186;BMP280;56298;49.246;9.410;2022-10-16T02:12:15;99251.06;;;16.30
69186;BMP280;56298;49.246;9.410;2022-10-16T02:14:43;99258.97;;;16.24
69186;BMP280;56298;49.246;9.410;2022-10-16T02:17:14;99259.34;;;16.19
69186;BMP280;56298;49.246;9.410;2022-10-16T02:19:40;99261.34;;;16.18
69186;BMP280;56298;49.246;9.410;2022-10-16T02:22:08;99259.38;;;16.11
69186;BMP280;56298;49.246;9.410;2022-10-16T02:27:33;99256.97;;;16.10
69186;BMP280;56298;49.246;9.410;2022-10-16T02:30:07;99257.78;;;16.10
69186;BMP280;56298;49.246;9.410;2022-10-16T02:32:37;99251.44;;;16.14
69186;BMP280;56298;49.246;9.410;2022-10-16T02:35:04;99255.81;;;16.18
69186;BMP280;56298;49.246;9.410;2022-10-16T02:37:30;99264.88;;;16.19
69186;BMP280;56298;49.246;9.410;2022-10-16T02:39:57;99267.66;;;16.22
69186;BMP280;56298;49.246;9.410;2022-10-16T02:42:37;99261.72;;;16.24
69186;BMP280;56298;49.246;9.410;2022-10-16T02:45:07;99266.84;;;16.25
69186;BMP280;56298;49.246;9.410;2022-10-16T02:47:33;99268.44;;;16.26
69186;BMP280;56298;49.246;9.410;2022-10-16T02:49:58;99273.56;;;16.21
69186;BMP280;56298;49.246;9.410;2022-10-16T02:52:24;99263.31;;;16.21
69186;BMP280;56298;49.246;9.410;2022-10-16T02:54:49;99271.25;;;15.94
69186;BMP280;56298;49.246;9.410;2022-10-16T02:57:15;99260.56;;;16.00
69186;BMP280;56298;49.246;9.410;2022-10-16T02:59:40;99256.59;;;16.04
69186;BMP280;56298;49.246;9.410;2022-10-16T03:02:05;99260.97;;;16.02
69186;BMP280;56298;49.246;9.410;2022-10-16T03:04:31;99266.09;;;16.07
69186;BMP280;56298;49.246;9.410;2022-10-16T03:06:56;99264.91;;;16.04
69186;BMP280;56298;49.246;9.410;2022-10-16T03:09:21;99265.69;;;16.08
69186;BMP280;56298;49.246;9.410;2022-10-16T03:11:47;99268.06;;;16.06
69186;BMP280;56298;49.246;9.410;2022-10-16T03:14:12;99263.34;;;16.07
69186;BMP280;56298;49.246;9.410;2022-10-16T03:16:37;99268.88;;;16.07
69186;BMP280;56298;49.246;9.410;2022-10-16T03:19:02;99274.00;;;16.01
69186;BMP280;56298;49.246;9.410;2022-10-16T03:21:28;99274.00;;;16.01
69186;BMP280;56298;49.246;9.410;2022-10-16T03:23:53;99266.09;;;16.00
69186;BMP280;56298;49.246;9.410;2022-10-16T03:26:18;99261.34;;;16.00
69186;BMP280;56298;49.246;9.410;2022-10-16T03:28:43;99266.09;;;16.00
69186;BMP280;56298;49.246;9.410;2022-10-16T03:31:09;99273.19;;;16.01
69186;BMP280;56298;49.246;9.410;2022-10-16T03:33:34;99272.41;;;15.86
69186;BMP280;56298;49.246;9.410;2022-10-16T03:35:59;99278.34;;;15.80
69186;BMP280;56298;49.246;9.410;2022-10-16T03:38:25;99281.53;;;15.90
69186;BMP280;56298;49.246;9.410;2022-10-16T03:40:50;99275.19;;;15.96
69186;BMP280;56298;49.246;9.410;2022-10-16T03:43:15;99287.41;;;16.03
69186;BMP280;56298;49.246;9.410;2022-10-16T03:45:41;99284.63;;;16.10
69186;BMP280;56298;49.246;9.410;2022-10-16T03:48:06;99284.66;;;16.14
69186;BMP280;56298;49.246;9.410;2022-10-16T03:50:31;99285.00;;;16.19
69186;BMP280;56298;49.246;9.410;2022-10-16T03:52:57;99290.59;;;16.23
69186;BMP280;56298;49.246;9.410;2022-10-16T03:55:22;99291.38;;;16.16
69186;BMP280;56298;49.246;9.410;2022-10-16T03:57:47;99289.41;;;16.13
69186;BMP280;56298;49.246;9.410;2022-10-16T04:00:12;99290.19;;;16.14
69186;BMP280;56298;49.246;9.410;2022-10-16T04:02:38;99283.47;;;16.11
69186;BMP280;56298;49.246;9.410;2022-10-16T04:05:04;99289.78;;;16.08
69186;BMP280;56298;49.246;9.410;2022-10-16T04:07:30;99290.19;;;16.03
69186;BMP280;56298;49.246;9.410;2022-10-16T04:09:55;99287.81;;;16.08
69186;BMP280;56298;49.246;9.410;2022-10-16T04:12:20;99290.59;;;16.12
69186;BMP280;56298;49.246;9.410;2022-10-16T04:14:46;99283.88;;;16.06
69186;BMP280;56298;49.246;9.410;2022-10-16T04:17:11;99293.38;;;16.12
69186;BMP280;56298;49.246;9.410;2022-10-16T04:19:36;99285.47;;;16.07
69186;BMP280;56298;49.246;9.410;2022-10-16T04:22:02;99285.88;;;16.02
69186;BMP280;56298;49.246;9.410;2022-10-16T04:24:27;99293.72;;;16.03
69186;BMP280;56298;49.246;9.410;2022-10-16T04:26:52;99300.47;;;15.95
69186;BMP280;56298;49.246;9.410;2022-10-16T04:29:17;99300.06;;;15.89
69186;BMP280;56298;49.246;9.410;2022-10-16T04:31:43;99302.44;;;15.94
69186;BMP280;56298;49.246;9.410;2022-10-16T04:34:08;99304.41;;;15.97
69186;BMP280;56298;49.246;9.410;2022-10-16T04:36:33;99306.78;;;15.92
69186;BMP280;56298;49.246;9.410;2022-10-16T04:38:59;99311.13;;;16.00
69186;BMP280;56298;49.246;9.410;2022-10-16T04:41:24;99323.75;;;16.05
69186;BMP280;56298;49.246;9.410;2022-10-16T04:43:49;99324.19;;;16.07
69186;BMP280;56298;49.246;9.410;2022-10-16T04:46:14;99330.47;;;16.07
69186;BMP280;56298;49.246;9.410;2022-10-16T04:48:40;99327.72;;;16.07
69186;BMP280;56298;49.246;9.410;2022-10-16T04:51:05;99322.16;;;16.07
69186;BMP280;56298;49.246;9.410;2022-10-16T04:53:30;99324.56;;;16.05
69186;BMP280;56298;49.246;9.410;2022-10-16T04:55:55;99327.75;;;16.00
69186;BMP280;56298;49.246;9.410;2022-10-16T04:58:22;99328.13;;;15.99
69186;BMP280;56298;49.246;9.410;2022-10-16T05:00:47;99330.47;;;15.93
69186;BMP280;56298;49.246;9.410;2022-10-16T05:03:13;99325.75;;;15.93
69186;BMP280;56298;49.246;9.410;2022-10-16T05:05:42;99323.38;;;15.88
69186;BMP280;56298;49.246;9.410;2022-10-16T05:08:09;99328.91;;;15.88
69186;BMP280;56298;49.246;9.410;2022-10-16T05:10:34;99332.06;;;15.87
69186;BMP280;56298;49.246;9.410;2022-10-16T05:12:59;99329.66;;;15.85
69186;BMP280;56298;49.246;9.410;2022-10-16T05:15:24;99342.31;;;15.82
69186;BMP280;56298;49.246;9.410;2022-10-16T05:17:52;99346.69;;;15.87
69186;BMP280;56298;49.246;9.410;2022-10-16T05:20:18;99343.91;;;15.83
69186;BMP280;56298;49.246;9.410;2022-10-16T05:22:43;99334.06;;;15.90
69186;BMP280;56298;49.246;9.410;2022-10-16T05:25:09;99332.06;;;15.90
69186;BMP280;56298;49.246;9.410;2022-10-16T05:27:34;99334.03;;;15.82
69186;BMP280;56298;49.246;9.410;2022-10-16T05:29:59;99334.06;;;15.90
69186;BMP280;56298;49.246;9.410;2022-10-16T05:32:24;99339.19;;;15.95
69186;BMP280;56298;49.246;9.410;2022-10-16T05:34:50;99333.25;;;15.96
69186;BMP280;56298;49.246;9.410;2022-10-16T05:37:15;99338.38;;;15.98
69186;BMP280;56298;49.246;9.410;2022-10-16T05:39:41;99336.81;;;15.93
69186;BMP280;56298;49.246;9.410;2022-10-16T05:42:06;99334.03;;;15.93
69186;BMP280;56298;49.246;9.410;2022-10-16T05:44:31;99330.50;;;15.96
69186;BMP280;56298;49.246;9.410;2022-10-16T05:46:57;99328.91;;;15.92
69186;BMP280;56298;49.246;9.410;2022-10-16T05:49:22;99329.31;;;15.90
69186;BMP280;56298;49.246;9.410;2022-10-16T05:51:47;99331.69;;;15.88
69186;BMP280;56298;49.246;9.410;2022-10-16T05:54:13;99345.50;;;15.88
69186;BMP280;56298;49.246;9.410;2022-10-16T05:56:38;99351.41;;;15.87
69186;BMP280;56298;49.246;9.410;2022-10-16T05:59:04;99337.59;;;15.87
69186;BMP280;56298;49.246;9.410;2022-10-16T06:01:29;99342.72;;;15.81
69186;BMP280;56298;49.246;9.410;2022-10-16T06:03:56;99345.84;;;15.79
69186;BMP280;56298;49.246;9.410;2022-10-16T06:06:23;99346.66;;;15.83
69186;BMP280;56298;49.246;9.410;2022-10-16T06:08:51;99350.63;;;15.82
69186;BMP280;56298;49.246;9.410;2022-10-16T06:11:21;99353.41;;;15.79
69186;BMP280;56298;49.246;9.410;2022-10-16T06:13:56;99356.53;;;15.81
69186;BMP280;56298;49.246;9.410;2022-10-16T06:16:22;99365.63;;;15.85
69186;BMP280;56298;49.246;9.410;2022-10-16T06:18:51;99366.03;;;15.87
69186;BMP280;56298;49.246;9.410;2022-10-16T06:21:18;99365.66;;;15.92
69186;BMP280;56298;49.246;9.410;2022-10-16T06:23:44;99375.94;;;15.99
69186;BMP280;56298;49.246;9.410;2022-10-16T06:26:13;99374.75;;;16.04
69186;BMP280;56298;49.246;9.410;2022-10-16T06:28:39;99368.03;;;16.05
69186;BMP280;56298;49.246;9.410;2022-10-16T06:31:06;99376.34;;;16.01
69186;BMP280;56298;49.246;9.410;2022-10-16T06:33:31;99386.63;;;16.04
69186;BMP280;56298;49.246;9.410;2022-10-16T06:36:05;99389.38;;;16.08
69186;BMP280;56298;49.246;9.410;2022-10-16T06:38:31;99375.16;;;16.13
69186;BMP280;56298;49.246;9.410;2022-10-16T06:40:57;99362.94;;;16.18
69186;BMP280;56298;49.246;9.410;2022-10-16T06:43:22;99373.97;;;16.21
69186;BMP280;56298;49.246;9.410;2022-10-16T06:45:55;99383.09;;;16.29
69186;BMP280;56298;49.246;9.410;2022-10-16T06:48:21;99385.03;;;16.36
69186;BMP280;56298;49.246;9.410;2022-10-16T06:51:08;99385.44;;;16.42
69186;BMP280;56298;49.246;9.410;2022-10-16T06:53:35;99384.66;;;16.45
69186;BMP280;56298;49.246;9.410;2022-10-16T06:56:13;99391.75;;;16.53
69186;BMP280;56298;49.246;9.410;2022-10-16T06:58:39;99409.94;;;16.65
69186;BMP280;56298;49.246;9.410;2022-10-16T07:01:04;99413.09;;;16.71
69186;BMP280;56298;49.246;9.410;2022-10-16T07:03:30;99410.72;;;16.73
69186;BMP280;56298;49.246;9.410;2022-10-16T07:05:56;99403.22;;;16.73
69186;BMP280;56298;49.246;9.410;2022-10-16T07:08:22;99414.25;;;16.80
69186;BMP280;56298;49.246;9.410;2022-10-16T07:10:47;99421.78;;;16.80
69186;BMP280;56298;49.246;9.410;2022-10-16T07:13:12;99424.94;;;16.82
69186;BMP280;56298;49.246;9.410;2022-10-16T07:15:40;99430.50;;;16.89
69186;BMP280;56298;49.246;9.410;2022-10-16T07:18:05;99422.59;;;16.88
69186;BMP280;56298;49.246;9.410;2022-10-16T07:20:30;99437.19;;;16.95
69186;BMP280;56298;49.246;9.410;2022-10-16T07:22:56;99435.63;;;16.98
69186;BMP280;56298;49.246;9.410;2022-10-16T07:25:21;99439.97;;;17.03
69186;BMP280;56298;49.246;9.410;2022-10-16T07:27:46;99439.19;;;16.98
69186;BMP280;56298;49.246;9.410;2022-10-16T07:30:11;99443.88;;;17.12
69186;BMP280;56298;49.246;9.410;2022-10-16T07:32:37;99455.44;;;17.00
69186;BMP280;56298;49.246;9.410;2022-10-16T07:35:02;99448.25;;;17.06
69186;BMP280;56298;49.246;9.410;2022-10-16T07:37:28;99451.44;;;17.01
69186;BMP280;56298;49.246;9.410;2022-10-16T07:39:53;99456.97;;;17.01
69186;BMP280;56298;49.246;9.410;2022-10-16T07:42:18;99460.56;;;17.05
69186;BMP280;56298;49.246;9.410;2022-10-16T07:44:45;99458.53;;;17.17
69186;BMP280;56298;49.246;9.410;2022-10-16T07:47:10;99456.88;;;17.34
69186;BMP280;56298;49.246;9.410;2022-10-16T07:49:35;99455.25;;;17.47
69186;BMP280;56298;49.246;9.410;2022-10-16T07:52:01;99459.56;;;17.59
69186;BMP280;56298;49.246;9.410;2022-10-16T07:54:26;99461.94;;;17.61
69186;BMP280;56298;49.246;9.410;2022-10-16T07:56:51;99467.16;;;17.51
69186;BMP280;56298;49.246;9.410;2022-10-16T07:59:17;99470.31;;;17.57
69186;BMP280;56298;49.246;9.410;2022-10-16T08:01:42;99470.72;;;17.45
69186;BMP280;56298;49.246;9.410;2022-10-16T08:04:08;99471.06;;;17.57
69186;BMP280;56298;49.246;9.410;2022-10-16T08:06:36;99474.28;;;17.56
69186;BMP280;56298;49.246;9.410;2022-10-16T08:09:02;99477.44;;;17.51
69186;BMP280;56298;49.246;9.410;2022-10-16T08:11:27;99473.91;;;17.47
69186;BMP280;56298;49.246;9.410;2022-10-16T08:13:53;99469.47;;;17.64
69186;BMP280;56298;49.246;9.410;2022-10-16T08:16:18;99471.72;;;17.87
69186;BMP280;56298;49.246;9.410;2022-10-16T08:18:43;99481.22;;;17.90
69186;BMP280;56298;49.246;9.410;2022-10-16T08:21:14;99480.38;;;18.00
69186;BMP280;56298;49.246;9.410;2022-10-16T08:23:41;99481.88;;;18.12
69186;BMP280;56298;49.246;9.410;2022-10-16T08:26:07;99485.75;;;18.25
69186;BMP280;56298;49.246;9.410;2022-10-16T08:28:33;99481.72;;;18.37
69186;BMP280;56298;49.246;9.410;2022-10-16T08:31:09;99492.06;;;18.37
69186;BMP280;56298;49.246;9.410;2022-10-16T08:33:35;99497.38;;;18.66
69186;BMP280;56298;49.246;9.410;2022-10-16T08:36:00;99500.28;;;18.97
69186;BMP280;56298;49.246;9.410;2022-10-16T08:38:26;99499.09;;;19.29
69186;BMP280;56298;49.246;9.410;2022-10-16T08:40:52;99496.22;;;19.40
69186;BMP280;56298;49.246;9.410;2022-10-16T08:46:16;99500.19;;;19.73
69186;BMP280;56298;49.246;9.410;2022-10-16T08:48:49;99503.31;;;19.75
69186;BMP280;56298;49.246;9.410;2022-10-16T08:51:35;99509.56;;;19.87
69186;BMP280;56298;49.246;9.410;2022-10-16T08:54:01;99508.13;;;20.02
69186;BMP280;56298;49.246;9.410;2022-10-16T08:56:28;99515.06;;;20.18
69186;BMP280;56298;49.246;9.410;2022-10-16T08:58:54;99500.25;;;20.48
69186;BMP280;56298;49.246;9.410;2022-10-16T09:01:21;99505.63;;;20.83
69186;BMP280;56298;49.246;9.410;2022-10-16T09:09:18;99500.53;;;21.02
69186;BMP280;56298;49.246;9.410;2022-10-16T09:20:19;99516.25;;;21.52
69186;BMP280;56298;49.246;9.410;2022-10-16T09:22:46;99513.03;;;21.54
69186;BMP280;56298;49.246;9.410;2022-10-16T09:25:16;99521.09;;;21.68
69186;BMP280;56298;49.246;9.410;2022-10-16T09:27:44;99523.75;;;21.92
69186;BMP280;56298;49.246;9.410;2022-10-16T09:30:16;99525.88;;;22.05
69186;BMP280;56298;49.246;9.410;2022-10-16T09:32:43;99531.66;;;22.14
69186;BMP280;56298;49.246;9.410;2022-10-16T09:35:20;99539.78;;;22.25
69186;BMP280;56298;49.246;9.410;2022-10-16T09:37:49;99542.47;;;22.28
69186;BMP280;56298;49.246;9.410;2022-10-16T09:43:06;99545.94;;;22.82
69186;BMP280;56298;49.246;9.410;2022-10-16T09:45:35;99559.78;;;23.02
69186;BMP280;56298;49.246;9.410;2022-10-16T09:48:10;99565.34;;;23.19
69186;BMP280;56298;49.246;9.410;2022-10-16T09:50:36;99568.63;;;23.43
69186;BMP280;56298;49.246;9.410;2022-10-16T09:53:10;99569.66;;;23.49
69186;BMP280;56298;49.246;9.410;2022-10-16T09:55:36;99568.75;;;23.40
69186;BMP280;56298;49.246;9.410;2022-10-16T09:58:01;99570.09;;;23.35
69186;BMP280;56298;49.246;9.410;2022-10-16T10:00:26;99574.38;;;23.23
69186;BMP280;56298;49.246;9.410;2022-10-16T10:02:53;99577.09;;;23.27
69186;BMP280;56298;49.246;9.410;2022-10-16T10:05:24;99580.56;;;23.18
69186;BMP280;56298;49.246;9.410;2022-10-16T10:10:31;99582.00;;;22.93
69186;BMP280;56298;49.246;9.410;2022-10-16T10:12:57;99585.91;;;22.96
69186;BMP280;56298;49.246;9.410;2022-10-16T10:15:23;99581.66;;;23.20
69186;BMP280;56298;49.246;9.410;2022-10-16T10:17:54;99581.38;;;23.31
69186;BMP280;56298;49.246;9.410;2022-10-16T10:20:33;99577.44;;;23.29
69186;BMP280;56298;49.246;9.410;2022-10-16T10:23:00;99579.91;;;23.27
69186;BMP280;56298;49.246;9.410;2022-10-16T10:28:26;99590.38;;;23.10
69186;BMP280;56298;49.246;9.410;2022-10-16T10:31:23;99586.03;;;22.92
69186;BMP280;56298;49.246;9.410;2022-10-16T10:33:57;99592.22;;;23.00
69186;BMP280;56298;49.246;9.410;2022-10-16T10:36:35;99599.91;;;23.12
69186;BMP280;56298;49.246;9.410;2022-10-16T10:39:31;99587.06;;;23.28
69186;BMP280;56298;49.246;9.410;2022-10-16T10:42:09;99585.69;;;23.49
69186;BMP280;56298;49.246;9.410;2022-10-16T10:47:59;99589.34;;;24.01
69186;BMP280;56298;49.246;9.410;2022-10-16T10:50:42;99590.13;;;24.15
69186;BMP280;56298;49.246;9.410;2022-10-16T10:59:05;99602.91;;;24.16
69186;BMP280;56298;49.246;9.410;2022-10-16T11:07:34;99582.09;;;24.65
69186;BMP280;56298;49.246;9.410;2022-10-16T11:10:12;99588.81;;;24.67
69186;BMP280;56298;49.246;9.410;2022-10-16T11:12:41;99586.41;;;24.79
69186;BMP280;56298;49.246;9.410;2022-10-16T11:15:14;99586.91;;;24.99
69186;BMP280;56298;49.246;9.410;2022-10-16T11:17:57;99578.53;;;25.31
69186;BMP280;56298;49.246;9.410;2022-10-16T11:20:26;99586.69;;;25.38
69186;BMP280;56298;49.246;9.410;2022-10-16T11:23:00;99586.09;;;25.43
69186;BMP280;56298;49.246;9.410;2022-10-16T11:25:29;99582.53;;;25.43
69186;BMP280;56298;49.246;9.410;2022-10-16T11:28:20;99577.16;;;25.36
69186;BMP280;56298;49.246;9.410;2022-10-16T11:30:59;99572.75;;;25.03
69186;BMP280;56298;49.246;9.410;2022-10-16T11:36:08;99562.38;;;24.42
69186;BMP280;56298;49.246;9.410;2022-10-16T11:41:34;99564.09;;;24.27
69186;BMP280;56298;49.246;9.410;2022-10-16T11:46:33;99565.88;;;24.47
69186;BMP280;56298;49.246;9.410;2022-10-16T11:49:04;99582.28;;;24.70
69186;BMP280;56298;49.246;9.410;2022-10-16T11:51:42;99587.56;;;24.68
69186;BMP280;56298;49.246;9.410;2022-10-16T11:56:43;99570.44;;;24.89
69186;BMP280;56298;49.246;9.410;2022-10-16T12:01:47;99578.16;;;24.97
69186;BMP280;56298;49.246;9.410;2022-10-16T12:07:12;99584.53;;;25.20
69186;BMP280;56298;49.246;9.410;2022-10-16T12:09:40;99579.31;;;25.31
69186;BMP280;56298;49.246;9.410;2022-10-16T12:12:38;99581.16;;;25.25
69186;BMP280;56298;49.246;9.410;2022-10-16T12:15:22;99582.91;;;25.32
69186;BMP280;56298;49.246;9.410;2022-10-16T12:17:48;99581.28;;;24.99
69186;BMP280;56298;49.246;9.410;2022-10-16T12:22:51;99594.16;;;24.39
69186;BMP280;56298;49.246;9.410;2022-10-16T12:28:01;99601.88;;;24.09
69186;BMP280;56298;49.246;9.410;2022-10-16T12:30:31;99596.28;;;24.09
69186;BMP280;56298;49.246;9.410;2022-10-16T12:32:59;99597.63;;;24.18
69186;BMP280;56298;49.246;9.410;2022-10-16T12:35:32;99593.47;;;24.22
69186;BMP280;56298;49.246;9.410;2022-10-16T12:38:17;99598.38;;;24.44
69186;BMP280;56298;49.246;9.410;2022-10-16T12:40:44;99596.56;;;24.63
69186;BMP280;56298;49.246;9.410;2022-10-16T12:43:13;99588.09;;;24.76
69186;BMP280;56298;49.246;9.410;2022-10-16T12:45:59;99589.94;;;24.92
69186;BMP280;56298;49.246;9.410;2022-10-16T12:48:24;99589.75;;;24.86
69186;BMP280;56298;49.246;9.410;2022-10-16T12:50:50;99588.84;;;24.90
69186;BMP280;56298;49.246;9.410;2022-10-16T12:53:24;99585.50;;;24.82
69186;BMP280;56298;49.246;9.410;2022-10-16T12:56:02;99590.47;;;24.78
69186;BMP280;56298;49.246;9.410;2022-10-16T12:59:03;99589.66;;;24.77
69186;BMP280;56298;49.246;9.410;2022-10-16T13:05:09;99583.78;;;24.97
69186;BMP280;56298;49.246;9.410;2022-10-16T13:10:51;99591.94;;;25.05
69186;BMP280;56298;49.246;9.410;2022-10-16T13:13:33;99595.31;;;24.99
69186;BMP280;56298;49.246;9.410;2022-10-16T13:17:08;99600.31;;;24.82
69186;BMP280;56298;49.246;9.410;2022-10-16T13:21:42;99591.78;;;24.73
69186;BMP280;56298;49.246;9.410;2022-10-16T13:24:41;99594.28;;;24.71
69186;BMP280;56298;49.246;9.410;2022-10-16T13:29:54;99591.06;;;24.95
69186;BMP280;56298;49.246;9.410;2022-10-16T13:32:26;99590.41;;;24.91
69186;BMP280;56298;49.246;9.410;2022-10-16T13:34:51;99588.31;;;24.82
69186;BMP280;56298;49.246;9.410;2022-10-16T13:37:20;99596.31;;;24.70
69186;BMP280;56298;49.246;9.410;2022-10-16T13:39:45;99599.09;;;24.70
69186;BMP280;56298;49.246;9.410;2022-10-16T13:42:22;99598.94;;;24.65
69186;BMP280;56298;49.246;9.410;2022-10-16T13:44:51;99605.09;;;24.60
69186;BMP280;56298;49.246;9.410;2022-10-16T13:47:28;99596.34;;;24.58
69186;BMP280;56298;49.246;9.410;2022-10-16T13:52:26;99607.09;;;24.59
69186;BMP280;56298;49.246;9.410;2022-10-16T13:54:51;99606.22;;;24.49
69186;BMP280;56298;49.246;9.410;2022-10-16T13:57:17;99609.72;;;24.40
69186;BMP280;56298;49.246;9.410;2022-10-16T13:59:43;99604.91;;;24.28
69186;BMP280;56298;49.246;9.410;2022-10-16T14:02:17;99608.19;;;24.14
69186;BMP280;56298;49.246;9.410;2022-10-16T14:04:45;99610.97;;;24.01
69186;BMP280;56298;49.246;9.410;2022-10-16T14:07:19;99617.69;;;23.90
69186;BMP280;56298;49.246;9.410;2022-10-16T14:09:48;99617.56;;;23.81
69186;BMP280;56298;49.246;9.410;2022-10-16T14:12:14;99617.44;;;23.72
69186;BMP280;56298;49.246;9.410;2022-10-16T14:14:47;99621.09;;;23.56
69186;BMP280;56298;49.246;9.410;2022-10-16T14:17:25;99622.41;;;23.51
69186;BMP280;56298;49.246;9.410;2022-10-16T14:19:54;99619.56;;;23.38
69186;BMP280;56298;49.246;9.410;2022-10-16T14:24:54;99628.41;;;23.37
69186;BMP280;56298;49.246;9.410;2022-10-16T14:27:28;99621.47;;;23.28
69186;BMP280;56298;49.246;9.410;2022-10-16T14:30:18;99621.19;;;23.23
69186;BMP280;56298;49.246;9.410;2022-10-16T14:33:01;99622.53;;;23.18
69186;BMP280;56298;49.246;9.410;2022-10-16T14:35:30;99620.34;;;23.09
69186;BMP280;56298;49.246;9.410;2022-10-16T14:37:58;99620.94;;;23.17
69186;BMP280;56298;49.246;9.410;2022-10-16T14:40:26;99622.66;;;23.27
69186;BMP280;56298;49.246;9.410;2022-10-16T14:42:52;99623.03;;;23.29
69186;BMP280;56298;49.246;9.410;2022-10-16T14:45:20;99617.06;;;23.27
69186;BMP280;56298;49.246;9.410;2022-10-16T14:47:52;99623.31;;;23.18
69186;BMP280;56298;49.246;9.410;2022-10-16T14:50:18;99621.47;;;23.12
69186;BMP280;56298;49.246;9.410;2022-10-16T14:52:43;99618.53;;;23.02
69186;BMP280;56298;49.246;9.410;2022-10-16T14:55:09;99620.47;;;22.89
69186;BMP280;56298;49.246;9.410;2022-10-16T14:57:36;99617.94;;;22.78
69186;BMP280;56298;49.246;9.410;2022-10-16T15:00:03;99625.81;;;22.67
69186;BMP280;56298;49.246;9.410;2022-10-16T15:02:33;99622.25;;;22.50
69186;BMP280;56298;49.246;9.410;2022-10-16T15:05:10;99620.50;;;22.39
69186;BMP280;56298;49.246;9.410;2022-10-16T15:07:36;99628.69;;;22.30
69186;BMP280;56298;49.246;9.410;2022-10-16T15:10:02;99625.25;;;22.22
69186;BMP280;56298;49.246;9.410;2022-10-16T15:12:28;99622.63;;;22.15
69186;BMP280;56298;49.246;9.410;2022-10-16T15:14:53;99617.97;;;22.08
69186;BMP280;56298;49.246;9.410;2022-10-16T15:17:18;99619.34;;;22.00
69186;BMP280;56298;49.246;9.410;2022-10-16T15:19:43;99612.72;;;21.94
69186;BMP280;56298;49.246;9.410;2022-10-16T15:22:11;99617.72;;;21.82
69186;BMP280;56298;49.246;9.410;2022-10-16T15:24:37;99611.66;;;21.67
69186;BMP280;56298;49.246;9.410;2022-10-16T15:27:02;99619.53;;;21.52
69186;BMP280;56298;49.246;9.410;2022-10-16T15:29:27;99611.41;;;21.38
69186;BMP280;56298;49.246;9.410;2022-10-16T15:31:53;99618.63;;;21.15
69186;BMP280;56298;49.246;9.410;2022-10-16T15:34:18;99620.13;;;21.20
69186;BMP280;56298;49.246;9.410;2022-10-16T15:36:44;99616.09;;;21.21
69186;BMP280;56298;49.246;9.410;2022-10-16T15:39:18;99614.47;;;21.23
69186;BMP280;56298;49.246;9.410;2022-10-16T15:41:45;99614.25;;;21.14
69186;BMP280;56298;49.246;9.410;2022-10-16T15:44:16;99616.84;;;21.25
69186;BMP280;56298;49.246;9.410;2022-10-16T15:46:41;99618.97;;;21.37
69186;BMP280;56298;49.246;9.410;2022-10-16T15:49:06;99619.16;;;21.50
69186;BMP280;56298;49.246;9.410;2022-10-16T15:51:32;99620.72;;;21.51
69186;BMP280;56298;49.246;9.410;2022-10-16T15:53:59;99620.81;;;21.48
69186;BMP280;56298;49.246;9.410;2022-10-16T15:56:26;99613.22;;;21.48